Time;durP1;ratioP1;P1;durP2;ratioP2;P2;SDS_P1;SDS_P2;PMS_P1;PMS_P2;Temp;Humidity;BMP_temperature;BMP_pressure;BME280_temperature;BME280_humidity;BME280_pressure;Samples;Min_cycle;Max_cycle;Signal;HPM_P1;HPM_P2
2024/01/27 00:00:46;;;;;;;12.10;2.90;;;4.60;99.90;;;;;;5093082;28;20166;-56
2024/01/27 00:03:11;;;;;;;10.20;2.70;;;4.50;99.90;;;;;;5093112;28;20215;-56
2024/01/27 00:05:37;;;;;;;12.25;2.83;;;4.50;99.90;;;;;;5093001;28;20535;-56
2024/01/27 00:08:02;;;;;;;13.90;3.28;;;4.50;99.90;;;;;;5093018;28;20201;-56
2024/01/27 00:10:28;;;;;;;11.65;2.75;;;4.50;99.90;;;;;;5091805;28;20652;-56
2024/01/27 00:12:54;;;;;;;16.98;3.25;;;4.50;99.90;;;;;;5093481;28;20214;-56
2024/01/27 00:15:19;;;;;;;14.75;2.70;;;4.50;99.90;;;;;;5092953;28;20161;-56
2024/01/27 00:17:45;;;;;;;15.27;3.85;;;4.40;99.90;;;;;;5092874;28;20640;-56
2024/01/27 00:20:11;;;;;;;11.88;2.85;;;4.40;99.90;;;;;;5093122;28;20172;-56
2024/01/27 00:22:36;;;;;;;7.38;2.92;;;4.40;99.90;;;;;;5092820;28;20245;-55
2024/01/27 00:25:02;;;;;;;14.73;3.15;;;4.30;99.90;;;;;;5092818;28;20197;-55
2024/01/27 00:27:28;;;;;;;13.75;3.33;;;4.30;99.90;;;;;;5092611;28;20216;-56
2024/01/27 00:29:53;;;;;;;12.48;2.95;;;4.30;99.90;;;;;;5093109;28;20161;-55
2024/01/27 00:32:19;;;;;;;17.52;5.30;;;4.30;99.90;;;;;;5092582;28;20230;-55
2024/01/27 00:34:44;;;;;;;9.40;2.38;;;4.30;99.90;;;;;;5092497;28;20170;-55
2024/01/27 00:37:10;;;;;;;13.73;3.17;;;4.30;99.90;;;;;;5092564;28;20248;-55
2024/01/27 00:39:35;;;;;;;12.40;3.20;;;4.30;99.90;;;;;;5092476;28;20197;-55
2024/01/27 00:42:01;;;;;;;8.57;2.72;;;4.30;99.90;;;;;;5092466;28;20177;-56
2024/01/27 00:44:26;;;;;;;11.82;3.05;;;4.30;99.90;;;;;;5092755;28;20184;-56
2024/01/27 00:46:52;;;;;;;8.38;2.58;;;4.20;99.90;;;;;;5092102;28;20234;-56
2024/01/27 00:49:18;;;;;;;8.38;2.58;;;4.30;99.90;;;;;;5091756;28;20165;-56
2024/01/27 00:51:43;;;;;;;14.35;2.92;;;4.20;99.90;;;;;;5092424;28;20652;-56
2024/01/27 00:54:09;;;;;;;12.68;2.75;;;4.20;99.90;;;;;;5092188;28;20201;-57
2024/01/27 00:56:34;;;;;;;13.93;3.15;;;4.20;99.90;;;;;;5091965;28;20345;-56
2024/01/27 00:59:00;;;;;;;16.20;3.65;;;4.20;99.90;;;;;;5091966;28;20172;-56
2024/01/27 01:01:25;;;;;;;10.70;3.42;;;4.10;99.90;;;;;;5092384;28;20294;-56
2024/01/27 01:03:51;;;;;;;13.68;2.53;;;4.20;99.90;;;;;;5091678;28;20294;-56
2024/01/27 01:06:16;;;;;;;8.82;3.08;;;4.10;99.90;;;;;;5091851;28;20682;-56
2024/01/27 01:08:42;;;;;;;13.77;3.85;;;4.10;99.90;;;;;;5091829;28;20194;-56
2024/01/27 01:11:07;;;;;;;14.43;3.53;;;4.10;99.90;;;;;;5091881;28;20162;-57
2024/01/27 01:13:33;;;;;;;9.95;3.83;;;4.10;99.90;;;;;;5091452;28;20664;-55
2024/01/27 01:15:58;;;;;;;10.60;2.97;;;4.10;99.90;;;;;;5091889;28;20230;-55
2024/01/27 01:18:24;;;;;;;11.63;3.35;;;4.10;99.90;;;;;;5092193;28;20181;-56
2024/01/27 01:20:49;;;;;;;12.15;3.20;;;4.00;99.90;;;;;;5091637;28;20168;-56
2024/01/27 01:23:15;;;;;;;10.95;2.88;;;4.00;99.90;;;;;;5091682;28;20165;-56
2024/01/27 01:25:41;;;;;;;8.45;2.97;;;4.00;99.90;;;;;;5091974;28;20165;-56
2024/01/27 01:28:07;;;;;;;17.63;3.47;;;4.00;99.90;;;;;;5092059;28;20259;-56
2024/01/27 01:30:32;;;;;;;9.30;3.33;;;4.00;99.90;;;;;;5091829;28;20165;-57
2024/01/27 01:32:58;;;;;;;8.40;3.00;;;4.00;99.90;;;;;;5091696;28;20174;-56
2024/01/27 01:35:24;;;;;;;8.27;3.17;;;4.10;99.90;;;;;;5092002;28;20210;-56
2024/01/27 01:37:50;;;;;;;9.75;3.22;;;4.10;99.90;;;;;;5090209;28;20157;-56
2024/01/27 01:40:15;;;;;;;15.55;3.30;;;4.10;99.90;;;;;;5091698;28;20169;-56
2024/01/27 01:42:41;;;;;;;13.07;3.40;;;4.10;99.90;;;;;;5091444;28;20535;-56
2024/01/27 01:45:09;;;;;;;9.23;3.00;;;4.10;99.90;;;;;;5091586;28;20629;-55
2024/01/27 01:47:35;;;;;;;14.35;3.53;;;4.10;99.90;;;;;;5091335;28;20197;-56
2024/01/27 01:50:01;;;;;;;12.38;3.47;;;4.10;99.90;;;;;;5091343;28;20236;-57
2024/01/27 01:52:26;;;;;;;21.35;3.35;;;4.10;99.90;;;;;;5091890;28;20547;-56
2024/01/27 01:54:52;;;;;;;12.82;3.58;;;4.10;99.90;;;;;;5091717;28;20157;-56
2024/01/27 01:57:18;;;;;;;8.02;3.60;;;4.10;99.90;;;;;;5091123;28;20699;-55
2024/01/27 01:59:43;;;;;;;11.70;3.60;;;4.00;99.90;;;;;;5093893;28;20569;-56
2024/01/27 02:02:09;;;;;;;21.40;3.20;;;4.00;99.90;;;;;;5095485;28;20157;-56
2024/01/27 02:04:42;;;;;;;12.27;3.10;;;3.90;99.90;;;;;;5095424;28;20165;-56
2024/01/27 02:07:08;;;;;;;19.10;3.38;;;3.90;99.90;;;;;;5095252;28;20208;-56
2024/01/27 02:09:34;;;;;;;14.57;3.03;;;3.90;99.90;;;;;;5095457;28;20192;-56
2024/01/27 02:11:59;;;;;;;15.55;3.88;;;3.90;99.90;;;;;;5095306;28;20193;-55
2024/01/27 02:14:27;;;;;;;9.38;3.08;;;3.80;99.90;;;;;;5095728;28;20165;-56
2024/01/27 02:16:53;;;;;;;12.38;2.60;;;3.80;99.90;;;;;;5095691;28;20185;-56
2024/01/27 02:19:19;;;;;;;9.60;2.95;;;3.90;99.90;;;;;;5095071;28;20245;-55
2024/01/27 02:21:44;;;;;;;9.10;2.78;;;3.90;99.90;;;;;;5095090;28;20189;-55
2024/01/27 02:24:10;;;;;;;10.88;3.22;;;3.90;99.90;;;;;;5095045;28;20529;-56
2024/01/27 02:26:36;;;;;;;13.43;3.70;;;3.90;99.90;;;;;;5094875;28;20699;-56
2024/01/27 02:29:01;;;;;;;13.43;5.03;;;4.00;99.90;;;;;;5094915;28;20252;-56
2024/01/27 02:31:27;;;;;;;16.60;3.33;;;3.90;99.90;;;;;;5094873;28;20172;-55
2024/01/27 02:33:52;;;;;;;9.38;3.15;;;3.90;99.90;;;;;;5095500;28;20625;-56
2024/01/27 02:36:18;;;;;;;12.55;3.40;;;3.90;99.90;;;;;;5094855;28;20173;-56
2024/01/27 02:38:43;;;;;;;6.82;2.92;;;3.90;99.90;;;;;;5094744;28;20184;-57
2024/01/27 02:41:11;;;;;;;13.38;3.28;;;3.90;99.90;;;;;;5094825;28;20210;-56
2024/01/27 02:43:36;;;;;;;11.15;3.63;;;3.80;99.90;;;;;;5094980;28;20185;-57
2024/01/27 02:46:02;;;;;;;11.05;2.95;;;3.80;99.90;;;;;;5094574;28;20166;-56
2024/01/27 02:48:28;;;;;;;14.60;4.20;;;3.80;99.90;;;;;;5094537;28;20165;-55
2024/01/27 02:50:53;;;;;;;11.52;2.83;;;3.70;99.90;;;;;;5095066;28;20161;-56
2024/01/27 02:53:19;;;;;;;11.45;2.63;;;3.70;99.90;;;;;;5094545;28;20246;-55
2024/01/27 02:55:44;;;;;;;12.43;3.38;;;3.70;99.90;;;;;;5094411;28;20161;-56
2024/01/27 02:58:10;;;;;;;14.75;3.80;;;3.60;99.90;;;;;;5094252;28;20236;-55
2024/01/27 03:00:35;;;;;;;18.90;2.90;;;3.70;99.90;;;;;;5094341;28;20629;-55
2024/01/27 03:03:01;;;;;;;8.63;2.78;;;3.70;99.90;;;;;;5094342;28;20161;-56
2024/01/27 03:05:27;;;;;;;16.05;3.47;;;3.60;99.90;;;;;;5093142;28;20165;-55
2024/01/27 03:07:52;;;;;;;9.80;3.65;;;3.60;99.90;;;;;;5094711;28;20667;-56
2024/01/27 03:10:18;;;;;;;15.20;4.80;;;3.60;99.90;;;;;;5093506;28;20172;-56
2024/01/27 03:12:43;;;;;;;13.35;3.25;;;3.60;99.90;;;;;;5094265;28;20196;-57
2024/01/27 03:15:09;;;;;;;11.60;3.05;;;3.60;99.90;;;;;;5093964;28;20164;-56
2024/01/27 03:17:34;;;;;;;9.13;2.95;;;3.60;99.90;;;;;;5094010;28;20524;-57
2024/01/27 03:20:00;;;;;;;15.80;3.40;;;3.50;99.90;;;;;;5093951;28;20248;-56
2024/01/27 03:22:26;;;;;;;14.43;3.58;;;3.50;99.90;;;;;;5094587;28;20222;-56
2024/01/27 03:24:53;;;;;;;12.60;3.30;;;3.20;99.90;;;;;;5094317;28;20574;-56
2024/01/27 03:27:18;;;;;;;16.85;3.70;;;3.50;99.90;;;;;;5093981;28;20232;-56
2024/01/27 03:29:44;;;;;;;18.42;3.55;;;3.50;99.90;;;;;;5094094;28;20172;-57
2024/01/27 03:32:09;;;;;;;30.80;3.40;;;3.50;99.90;;;;;;5093733;28;20169;-57
2024/01/27 03:34:35;;;;;;;7.10;2.72;;;3.50;99.90;;;;;;5093718;28;20172;-57
2024/01/27 03:37:00;;;;;;;13.35;3.10;;;3.50;99.90;;;;;;5093771;28;20162;-57
2024/01/27 03:39:26;;;;;;;10.63;3.53;;;3.40;99.90;;;;;;5094079;28;20165;-54
2024/01/27 03:41:51;;;;;;;19.13;3.80;;;3.40;99.90;;;;;;5094373;28;20176;-55
2024/01/27 03:44:17;;;;;;;7.85;2.95;;;3.40;99.90;;;;;;5093539;28;20704;-55
2024/01/27 03:46:43;;;;;;;17.02;3.60;;;3.40;99.90;;;;;;5093324;28;20246;-55
2024/01/27 03:49:08;;;;;;;19.67;3.22;;;3.30;99.90;;;;;;5093367;28;20204;-55
2024/01/27 03:51:34;;;;;;;16.60;3.08;;;3.40;99.90;;;;;;5093372;28;20173;-55
2024/01/27 03:53:59;;;;;;;18.25;3.35;;;3.40;99.90;;;;;;5093375;28;20219;-55
2024/01/27 03:56:25;;;;;;;13.68;3.45;;;3.40;99.90;;;;;;5093607;28;20217;-55
2024/01/27 03:58:50;;;;;;;10.98;3.00;;;3.40;99.90;;;;;;5093323;28;20165;-56
2024/01/27 04:01:16;;;;;;;18.58;3.20;;;3.40;99.90;;;;;;5093186;28;20597;-54
2024/01/27 04:03:41;;;;;;;15.38;2.97;;;3.40;99.90;;;;;;5093077;28;20170;-55
2024/01/27 04:06:07;;;;;;;15.82;3.60;;;3.40;99.90;;;;;;5093013;28;20157;-55
2024/01/27 04:08:33;;;;;;;20.92;3.47;;;3.40;99.90;;;;;;5093069;28;20177;-56
2024/01/27 04:10:58;;;;;;;15.93;3.22;;;3.40;99.90;;;;;;5092982;28;20253;-56
2024/01/27 04:13:24;;;;;;;12.18;3.03;;;3.40;99.90;;;;;;5092127;28;20161;-55
2024/01/27 04:15:51;;;;;;;13.63;3.67;;;3.40;99.90;;;;;;5092816;28;20170;-56
2024/01/27 04:18:16;;;;;;;18.25;3.53;;;3.40;99.90;;;;;;5093110;28;20640;-55
2024/01/27 04:20:42;;;;;;;16.05;3.88;;;3.40;99.90;;;;;;5092732;28;20188;-53
2024/01/27 04:23:08;;;;;;;9.88;3.30;;;3.60;99.90;;;;;;5091677;28;20161;-53
2024/01/27 04:25:33;;;;;;;12.65;3.53;;;3.40;99.90;;;;;;5092668;28;20180;-54
2024/01/27 04:27:59;;;;;;;12.25;3.15;;;3.40;99.90;;;;;;5092840;28;20205;-54
2024/01/27 04:30:24;;;;;;;20.70;3.88;;;3.40;99.90;;;;;;5093463;28;20168;-54
2024/01/27 04:32:51;;;;;;;18.48;3.38;;;3.40;99.90;;;;;;5092610;28;20169;-54
2024/01/27 04:35:17;;;;;;;16.00;3.55;;;3.40;99.90;;;;;;5092549;28;20157;-54
2024/01/27 04:37:44;;;;;;;18.58;3.95;;;3.40;99.90;;;;;;5092459;28;20241;-54
2024/01/27 04:40:10;;;;;;;20.55;3.58;;;3.40;99.90;;;;;;5092734;28;20299;-54
2024/01/27 04:42:38;;;;;;;17.63;2.97;;;3.30;99.90;;;;;;5092615;28;20686;-54
2024/01/27 04:45:05;;;;;;;14.13;3.33;;;3.30;99.90;;;;;;5092344;28;20172;-54
2024/01/27 04:47:31;;;;;;;15.80;3.33;;;3.20;99.90;;;;;;5092400;28;20541;-53
2024/01/27 04:49:59;;;;;;;13.15;3.38;;;3.20;99.90;;;;;;5092216;28;20185;-53
2024/01/27 04:52:25;;;;;;;11.18;3.67;;;3.20;99.90;;;;;;5092788;28;20238;-53
2024/01/27 04:54:51;;;;;;;13.23;3.33;;;3.20;99.90;;;;;;5092069;28;20645;-53
2024/01/27 04:57:17;;;;;;;14.43;3.60;;;3.20;99.90;;;;;;5092128;28;20229;-54
2024/01/27 04:59:42;;;;;;;16.65;3.65;;;3.20;99.90;;;;;;5090827;28;20166;-53
2024/01/27 05:02:08;;;;;;;11.65;3.20;;;3.10;99.90;;;;;;5092055;28;20209;-53
2024/01/27 05:04:33;;;;;;;17.85;3.58;;;3.20;99.90;;;;;;5092054;28;20200;-54
2024/01/27 05:06:59;;;;;;;13.98;3.38;;;3.10;99.90;;;;;;5091949;28;20220;-53
2024/01/27 05:09:25;;;;;;;17.83;3.55;;;3.10;99.90;;;;;;5092410;28;20165;-53
2024/01/27 05:11:52;;;;;;;14.95;4.13;;;3.10;99.90;;;;;;5091737;28;20169;-53
2024/01/27 05:14:18;;;;;;;12.27;3.08;;;3.10;99.90;;;;;;5091654;28;20157;-53
2024/01/27 05:16:43;;;;;;;11.27;3.20;;;3.10;99.90;;;;;;5091381;28;20317;-54
2024/01/27 05:19:10;;;;;;;16.95;4.70;;;3.10;99.90;;;;;;5091743;28;20168;-53
2024/01/27 05:21:36;;;;;;;12.82;3.25;;;3.20;99.90;;;;;;5091702;28;20256;-54
2024/01/27 05:24:01;;;;;;;21.05;3.92;;;3.20;99.90;;;;;;5091699;28;20248;-54
2024/01/27 05:26:27;;;;;;;16.42;3.70;;;3.10;99.90;;;;;;5091508;28;20246;-54
2024/01/27 05:28:53;;;;;;;14.65;3.72;;;3.10;99.90;;;;;;5092148;28;20207;-53
2024/01/27 05:31:18;;;;;;;17.80;4.15;;;3.10;99.90;;;;;;5091603;28;20172;-53
2024/01/27 05:33:44;;;;;;;20.85;4.15;;;3.00;99.90;;;;;;5091180;28;20164;-54
2024/01/27 05:36:10;;;;;;;18.20;3.60;;;3.00;99.90;;;;;;5090663;28;20202;-53
2024/01/27 05:38:35;;;;;;;17.13;3.75;;;3.10;99.90;;;;;;5091498;28;20634;-54
2024/01/27 05:41:01;;;;;;;21.80;4.35;;;3.10;99.90;;;;;;5091479;28;20219;-53
2024/01/27 05:43:27;;;;;;;17.23;3.50;;;3.10;99.90;;;;;;5091679;28;20165;-54
2024/01/27 05:45:53;;;;;;;14.57;3.10;;;3.10;99.90;;;;;;5092227;28;20515;-53
2024/01/27 05:48:18;;;;;;;12.85;3.08;;;3.10;99.90;;;;;;5091523;28;20208;-54
2024/01/27 05:50:54;;;;;;;10.60;3.53;;;3.10;99.90;;;;;;5091276;28;20166;-53
2024/01/27 05:53:19;;;;;;;14.73;3.20;;;3.00;99.90;;;;;;5090031;28;20179;-53
2024/01/27 05:55:46;;;;;;;15.15;3.42;;;3.00;99.90;;;;;;5091218;28;21188;-53
2024/01/27 05:58:12;;;;;;;12.63;4.63;;;3.00;99.90;;;;;;5091353;28;20752;-53
2024/01/27 06:00:39;;;;;;;16.45;3.42;;;3.00;99.90;;;;;;5090211;28;20269;-52
2024/01/27 06:03:04;;;;;;;12.57;3.67;;;2.90;99.90;;;;;;5091016;28;20172;-52
2024/01/27 06:05:30;;;;;;;20.73;5.18;;;2.90;99.90;;;;;;5090940;28;20599;-53
2024/01/27 06:07:55;;;;;;;17.33;4.03;;;2.90;99.90;;;;;;5091159;28;20213;-53
2024/01/27 06:10:22;;;;;;;17.25;4.07;;;2.90;99.90;;;;;;5091654;28;20164;-53
2024/01/27 06:12:47;;;;;;;12.68;4.03;;;2.90;99.90;;;;;;5091421;28;20206;-54
2024/01/27 06:15:15;;;;;;;18.75;4.32;;;2.90;99.90;;;;;;5091199;28;20250;-53
2024/01/27 06:17:40;;;;;;;14.57;4.85;;;2.90;99.90;;;;;;5091182;28;20172;-53
2024/01/27 06:20:07;;;;;;;26.40;5.13;;;3.00;99.90;;;;;;5091160;28;20173;-53
2024/01/27 06:22:32;;;;;;;15.07;4.68;;;3.00;99.90;;;;;;5091131;28;20172;-53
2024/01/27 06:24:58;;;;;;;20.80;4.20;;;3.00;99.90;;;;;;5091028;28;20154;-53
2024/01/27 06:27:24;;;;;;;11.20;3.55;;;3.00;99.90;;;;;;5091474;28;20209;-53
2024/01/27 06:29:49;;;;;;;10.65;4.53;;;3.00;99.90;;;;;;5089781;28;20174;-53
2024/01/27 06:32:15;;;;;;;17.95;3.95;;;3.00;99.90;;;;;;5091004;28;20942;-53
2024/01/27 06:34:41;;;;;;;21.17;3.88;;;2.90;99.90;;;;;;5089763;28;20162;-53
2024/01/27 06:37:07;;;;;;;22.50;4.70;;;2.90;99.90;;;;;;5089699;28;20181;-53
2024/01/27 06:39:32;;;;;;;9.75;3.17;;;2.90;99.90;;;;;;5090859;28;20172;-53
2024/01/27 06:41:58;;;;;;;17.60;4.22;;;2.90;99.90;;;;;;5090803;28;20188;-53
2024/01/27 06:44:23;;;;;;;15.38;3.55;;;2.90;99.90;;;;;;5091264;28;20548;-53
2024/01/27 06:46:50;;;;;;;16.20;3.50;;;2.90;99.90;;;;;;5092975;28;20201;-53
2024/01/27 06:49:16;;;;;;;18.05;4.07;;;2.80;99.90;;;;;;5094860;28;20188;-53
2024/01/27 06:51:43;;;;;;;15.65;3.40;;;2.80;99.90;;;;;;5093165;28;20649;-53
2024/01/27 06:54:08;;;;;;;14.18;3.60;;;2.80;99.90;;;;;;5093261;28;20642;-53
2024/01/27 06:56:34;;;;;;;12.23;3.25;;;2.70;99.90;;;;;;5094407;28;20311;-54
2024/01/27 06:59:00;;;;;;;16.85;3.95;;;2.70;99.90;;;;;;5094337;28;20538;-54
2024/01/27 07:01:25;;;;;;;20.15;4.15;;;2.70;99.90;;;;;;5093136;28;20173;-54
2024/01/27 07:03:51;;;;;;;18.67;4.55;;;2.70;99.90;;;;;;5094817;28;20508;-53
2024/01/27 07:06:16;;;;;;;16.85;4.65;;;2.60;99.90;;;;;;5094493;28;20693;-53
2024/01/27 07:08:42;;;;;;;17.60;5.53;;;2.70;99.90;;;;;;5094043;28;20166;-53
2024/01/27 07:11:07;;;;;;;14.48;5.28;;;2.80;99.90;;;;;;5094114;28;20244;-54
2024/01/27 07:13:33;;;;;;;19.98;5.50;;;2.70;99.90;;;;;;5094223;28;20299;-54
2024/01/27 07:15:58;;;;;;;17.30;5.15;;;2.80;99.90;;;;;;5094282;28;20196;-54
2024/01/27 07:18:24;;;;;;;20.73;4.90;;;2.80;99.90;;;;;;5094511;28;20238;-54
2024/01/27 07:20:51;;;;;;;21.52;6.00;;;2.90;99.90;;;;;;5094293;28;20180;-53
2024/01/27 07:23:17;;;;;;;14.88;4.53;;;2.90;99.90;;;;;;5093952;28;20162;-55
2024/01/27 07:25:43;;;;;;;16.17;5.18;;;2.80;99.90;;;;;;5094166;28;20165;-55
2024/01/27 07:28:09;;;;;;;17.85;5.43;;;2.90;99.90;;;;;;5093749;28;20223;-60
2024/01/27 07:30:34;;;;;;;19.10;5.43;;;2.80;99.90;;;;;;5093823;28;20176;-55
2024/01/27 07:33:00;;;;;;;21.92;5.47;;;2.80;99.90;;;;;;5093823;28;20168;-54
2024/01/27 07:35:25;;;;;;;18.42;4.93;;;2.90;99.90;;;;;;5093828;28;20252;-54
2024/01/27 07:37:51;;;;;;;20.08;5.28;;;2.90;99.90;;;;;;5094154;28;20173;-54
2024/01/27 07:40:16;;;;;;;14.30;5.30;;;2.90;99.90;;;;;;5093625;28;20175;-54
2024/01/27 07:42:43;;;;;;;18.45;6.38;;;2.90;99.90;;;;;;5093824;28;20249;-53
2024/01/27 07:45:08;;;;;;;22.70;5.97;;;2.90;99.90;;;;;;5092167;28;20189;-53
2024/01/27 07:47:34;;;;;;;24.58;5.20;;;3.00;99.90;;;;;;5093282;28;20684;-53
2024/01/27 07:50:00;;;;;;;18.73;5.40;;;2.90;99.90;;;;;;5093570;28;20252;-54
2024/01/27 07:52:25;;;;;;;18.13;4.90;;;2.90;99.90;;;;;;5092288;28;20183;-54
2024/01/27 07:54:51;;;;;;;16.33;4.32;;;2.90;99.90;;;;;;5094082;28;20203;-53
2024/01/27 07:57:16;;;;;;;12.02;3.50;;;3.00;99.90;;;;;;5092953;28;20609;-53
2024/01/27 07:59:42;;;;;;;13.43;3.33;;;3.00;99.90;;;;;;5093172;28;20166;-53
2024/01/27 08:02:07;;;;;;;12.60;2.85;;;3.00;99.90;;;;;;5091949;28;20187;-53
2024/01/27 08:04:33;;;;;;;13.32;2.97;;;3.00;99.90;;;;;;5093142;28;20248;-55
2024/01/27 08:06:59;;;;;;;13.07;3.15;;;3.00;99.90;;;;;;5093019;28;20201;-55
2024/01/27 08:09:25;;;;;;;14.05;3.50;;;3.10;99.90;;;;;;5093549;28;20613;-53
2024/01/27 08:11:53;;;;;;;12.35;3.90;;;3.10;99.90;;;;;;5093717;28;20177;-55
2024/01/27 08:14:19;;;;;;;19.15;5.32;;;3.10;99.90;;;;;;5092873;28;20245;-53
2024/01/27 08:16:45;;;;;;;14.35;4.28;;;3.20;99.90;;;;;;5093041;28;20184;-53
2024/01/27 08:19:11;;;;;;;12.82;4.30;;;3.30;99.90;;;;;;5092871;28;20169;-53
2024/01/27 08:21:36;;;;;;;12.98;3.97;;;3.30;99.90;;;;;;5093072;28;20192;-53
2024/01/27 08:24:02;;;;;;;18.65;3.70;;;3.40;99.90;;;;;;5092837;28;20161;-54
2024/01/27 08:26:27;;;;;;;7.97;3.42;;;3.50;99.90;;;;;;5092600;28;20201;-54
2024/01/27 08:28:55;;;;;;;15.48;4.07;;;3.50;99.90;;;;;;5092006;28;20177;-54
2024/01/27 08:31:21;;;;;;;18.00;4.75;;;3.60;99.90;;;;;;5093116;28;20634;-53
2024/01/27 08:33:47;;;;;;;18.48;5.03;;;3.70;99.90;;;;;;5091268;28;20223;-53
2024/01/27 08:36:15;;;;;;;16.13;4.30;;;3.80;99.90;;;;;;5092598;28;20165;-53
2024/01/27 08:38:41;;;;;;;10.88;4.57;;;3.90;99.90;;;;;;5092573;28;20601;-53
2024/01/27 08:41:06;;;;;;;21.25;4.25;;;4.00;99.90;;;;;;5092507;28;20241;-53
2024/01/27 08:43:32;;;;;;;15.43;4.25;;;4.10;99.90;;;;;;5092381;28;20524;-53
2024/01/27 08:46:00;;;;;;;11.80;3.42;;;4.20;99.90;;;;;;5092289;28;20528;-54
2024/01/27 08:48:25;;;;;;;14.52;4.22;;;4.30;99.90;;;;;;5092769;28;20213;-53
2024/01/27 08:50:51;;;;;;;15.23;4.10;;;4.40;99.90;;;;;;5092668;28;20173;-54
2024/01/27 08:53:16;;;;;;;8.73;3.72;;;4.40;99.90;;;;;;5092135;28;20295;-53
2024/01/27 08:55:42;;;;;;;14.88;5.78;;;4.50;99.90;;;;;;5092254;28;20161;-54
2024/01/27 08:58:08;;;;;;;14.73;4.10;;;4.70;99.90;;;;;;5091914;28;20221;-54
2024/01/27 09:00:33;;;;;;;19.52;4.45;;;4.70;99.90;;;;;;5092038;28;20177;-54
2024/01/27 09:02:59;;;;;;;17.70;5.10;;;4.80;99.90;;;;;;5092137;28;20173;-54
2024/01/27 09:05:25;;;;;;;24.92;5.47;;;4.80;99.90;;;;;;5091977;28;20686;-54
2024/01/27 09:07:51;;;;;;;26.67;6.53;;;4.80;99.90;;;;;;5092405;28;20581;-54
2024/01/27 09:10:16;;;;;;;27.08;6.45;;;4.80;99.90;;;;;;5091665;28;20165;-54
2024/01/27 09:12:42;;;;;;;19.45;5.78;;;5.00;99.90;;;;;;5091856;28;20617;-54
2024/01/27 09:15:08;;;;;;;18.73;5.97;;;5.10;99.90;;;;;;5091854;28;20214;-54
2024/01/27 09:17:34;;;;;;;21.25;5.38;;;5.20;99.90;;;;;;5092061;28;20251;-54
2024/01/27 09:19:59;;;;;;;13.77;3.70;;;5.20;99.90;;;;;;5091722;28;20164;-54
2024/01/27 09:22:25;;;;;;;21.48;5.65;;;5.30;99.90;;;;;;5091798;28;20237;-54
2024/01/27 09:24:52;;;;;;;17.67;4.53;;;5.40;99.90;;;;;;5092150;28;20625;-53
2024/01/27 09:27:18;;;;;;;14.73;4.82;;;5.50;99.90;;;;;;5091510;28;20245;-53
2024/01/27 09:29:44;;;;;;;23.08;5.18;;;5.60;99.90;;;;;;5091593;28;20608;-53
2024/01/27 09:32:09;;;;;;;13.48;3.25;;;5.60;99.90;;;;;;5090327;28;20739;-53
2024/01/27 09:34:35;;;;;;;11.25;3.88;;;5.50;99.90;;;;;;5091539;28;20632;-53
2024/01/27 09:37:01;;;;;;;8.15;3.45;;;5.60;99.90;;;;;;5091534;28;20162;-53
2024/01/27 09:39:27;;;;;;;13.00;4.13;;;5.50;99.90;;;;;;5091775;28;20165;-53
2024/01/27 09:41:54;;;;;;;15.60;4.28;;;5.60;99.90;;;;;;5091935;28;20642;-54
2024/01/27 09:44:19;;;;;;;15.32;3.70;;;5.70;99.90;;;;;;5091903;28;20173;-54
2024/01/27 09:46:47;;;;;;;10.75;3.10;;;5.90;99.90;;;;;;5090040;28;20235;-54
2024/01/27 09:49:14;;;;;;;7.50;3.53;;;6.00;99.90;;;;;;5091584;28;20173;-54
2024/01/27 09:51:41;;;;;;;13.95;3.28;;;6.00;99.90;;;;;;5091293;28;20541;-54
2024/01/27 09:54:07;;;;;;;16.58;3.65;;;5.90;99.90;;;;;;5091316;28;20556;-54
2024/01/27 09:56:33;;;;;;;14.27;2.67;;;5.90;99.90;;;;;;5091089;28;20239;-54
2024/01/27 09:59:00;;;;;;;10.55;3.05;;;6.00;99.90;;;;;;5091279;28;20172;-54
2024/01/27 10:01:28;;;;;;;11.48;3.53;;;6.00;99.90;;;;;;5091217;28;20172;-54
2024/01/27 10:03:54;;;;;;;14.68;3.35;;;6.00;99.90;;;;;;5091661;28;20223;-54
2024/01/27 10:06:21;;;;;;;16.67;3.67;;;6.00;99.90;;;;;;5091803;28;20194;-54
2024/01/27 10:08:54;;;;;;;19.83;3.40;;;6.00;99.90;;;;;;5091060;28;20166;-54
2024/01/27 10:11:20;;;;;;;10.65;2.97;;;6.00;99.90;;;;;;5090237;28;20252;-54
2024/01/27 10:13:57;;;;;;;12.23;3.38;;;6.10;99.90;;;;;;5089893;28;20170;-54
2024/01/27 10:16:23;;;;;;;15.65;3.20;;;6.20;99.90;;;;;;5091825;28;20189;-53
2024/01/27 10:19:02;;;;;;;18.38;3.40;;;6.30;99.90;;;;;;5091083;28;20677;-54
2024/01/27 10:21:28;;;;;;;11.40;3.22;;;6.30;99.90;;;;;;5092975;28;20652;-54
2024/01/27 10:23:54;;;;;;;12.65;3.38;;;6.50;99.90;;;;;;5094291;28;20180;-54
2024/01/27 10:26:20;;;;;;;10.15;2.85;;;6.50;99.90;;;;;;5094960;28;20218;-54
2024/01/27 10:28:55;;;;;;;9.82;3.88;;;6.50;99.90;;;;;;5095285;28;20177;-53
2024/01/27 10:31:33;;;;;;;8.38;3.13;;;6.50;99.90;;;;;;5095721;28;20164;-54
2024/01/27 10:34:01;;;;;;;13.52;2.97;;;6.60;99.90;;;;;;5095151;28;20200;-54
2024/01/27 10:36:37;;;;;;;10.55;2.55;;;6.70;99.90;;;;;;5095096;28;20165;-54
2024/01/27 10:39:14;;;;;;;11.75;3.28;;;6.70;99.90;;;;;;5094821;28;20173;-54
2024/01/27 10:41:41;;;;;;;10.55;3.20;;;6.90;99.90;;;;;;5094782;28;20248;-54
2024/01/27 10:44:07;;;;;;;8.98;3.10;;;6.90;99.90;;;;;;5094740;28;20175;-54
2024/01/27 10:46:33;;;;;;;7.35;2.78;;;6.70;99.90;;;;;;5094657;28;20197;-54
2024/01/27 10:49:00;;;;;;;17.73;3.45;;;6.60;99.90;;;;;;5094648;28;20636;-54
2024/01/27 10:51:31;;;;;;;11.38;3.22;;;6.50;99.90;;;;;;5094812;28;20494;-54
2024/01/27 10:54:02;;;;;;;11.30;3.25;;;6.50;99.90;;;;;;5094437;28;20174;-54
2024/01/27 10:56:29;;;;;;;13.15;3.67;;;6.50;99.90;;;;;;5094505;28;20217;-54
2024/01/27 10:58:57;;;;;;;17.42;3.70;;;6.50;99.90;;;;;;5094632;28;20184;-54
2024/01/27 11:01:24;;;;;;;9.98;3.03;;;6.70;99.90;;;;;;5094868;28;20161;-54
2024/01/27 11:03:52;;;;;;;10.38;2.78;;;6.90;99.90;;;;;;5094952;28;20234;-54
2024/01/27 11:06:21;;;;;;;7.03;2.53;;;7.00;99.90;;;;;;5094297;28;20507;-54
2024/01/27 11:08:49;;;;;;;13.02;2.72;;;7.00;99.90;;;;;;5094124;28;20158;-54
2024/01/27 11:11:14;;;;;;;8.35;3.10;;;7.10;99.90;;;;;;5094209;28;20173;-53
2024/01/27 11:13:40;;;;;;;16.15;2.97;;;7.20;99.90;;;;;;5094152;28;20539;-54
2024/01/27 11:16:18;;;;;;;12.20;3.83;;;7.30;99.90;;;;;;5094097;28;20522;-53
2024/01/27 11:18:44;;;;;;;10.40;2.78;;;7.40;99.90;;;;;;5094039;28;20176;-54
2024/01/27 11:21:17;;;;;;;12.05;2.83;;;7.50;99.90;;;;;;5094030;28;20180;-53
2024/01/27 11:23:43;;;;;;;11.63;3.38;;;7.70;99.90;;;;;;5093907;28;20165;-53
2024/01/27 11:26:09;;;;;;;13.48;4.50;;;7.80;99.90;;;;;;5094217;28;20177;-54
2024/01/27 11:28:36;;;;;;;10.65;3.30;;;7.80;99.90;;;;;;5093771;28;20270;-54
2024/01/27 11:31:06;;;;;;;18.42;3.33;;;7.90;99.90;;;;;;5093773;28;20165;-54
2024/01/27 11:33:32;;;;;;;8.07;2.80;;;7.90;99.90;;;;;;5093356;28;20637;-54
2024/01/27 11:36:04;;;;;;;14.48;3.45;;;7.90;99.90;;;;;;5093860;28;20173;-54
2024/01/27 11:38:31;;;;;;;13.98;3.80;;;7.80;99.90;;;;;;5093671;28;20635;-54
2024/01/27 11:40:57;;;;;;;15.02;3.50;;;7.90;99.90;;;;;;5093697;28;20252;-53
2024/01/27 11:43:22;;;;;;;8.13;3.10;;;8.00;99.90;;;;;;5094073;28;20248;-53
2024/01/27 11:46:01;;;;;;;12.38;3.50;;;8.00;99.90;;;;;;5093553;28;20524;-53
2024/01/27 11:48:29;;;;;;;10.20;2.88;;;8.10;99.90;;;;;;5093503;28;20590;-54
2024/01/27 11:51:07;;;;;;;8.55;3.60;;;8.00;99.90;;;;;;5093491;28;20586;-54
2024/01/27 11:53:34;;;;;;;12.82;3.47;;;8.00;99.90;;;;;;5093358;28;20165;-54
2024/01/27 11:56:01;;;;;;;9.85;3.58;;;8.00;99.90;;;;;;5093150;28;20166;-54
2024/01/27 11:58:26;;;;;;;9.32;3.35;;;8.10;99.90;;;;;;5093584;28;20173;-54
2024/01/27 12:00:52;;;;;;;18.23;4.30;;;8.20;99.90;;;;;;5093781;28;20248;-54
2024/01/27 12:03:17;;;;;;;13.75;3.38;;;8.10;99.90;;;;;;5093167;28;20267;-54
2024/01/27 12:05:43;;;;;;;10.48;3.17;;;8.10;99.90;;;;;;5093167;28;20169;-54
2024/01/27 12:08:09;;;;;;;14.13;4.70;;;8.00;99.90;;;;;;5092906;28;20220;-54
2024/01/27 12:10:34;;;;;;;10.80;3.78;;;8.10;99.90;;;;;;5093295;28;20222;-55
2024/01/27 12:13:00;;;;;;;10.15;3.20;;;8.10;99.90;;;;;;5092979;28;20170;-54
2024/01/27 12:15:26;;;;;;;9.43;3.10;;;8.20;99.90;;;;;;5092940;28;20207;-54
2024/01/27 12:17:52;;;;;;;8.60;2.92;;;8.20;99.90;;;;;;5093410;28;20197;-54
2024/01/27 12:20:18;;;;;;;10.48;2.88;;;8.30;99.90;;;;;;5092818;28;20169;-54
2024/01/27 12:22:44;;;;;;;8.20;2.92;;;8.40;99.90;;;;;;5092862;28;20651;-54
2024/01/27 12:25:13;;;;;;;12.73;3.05;;;8.40;99.90;;;;;;5091458;28;20258;-54
2024/01/27 12:27:39;;;;;;;10.93;2.90;;;8.30;99.90;;;;;;5092655;28;20254;-54
2024/01/27 12:30:06;;;;;;;11.25;2.97;;;8.20;99.90;;;;;;5092677;28;20618;-54
2024/01/27 12:32:31;;;;;;;9.65;2.72;;;8.30;99.90;;;;;;5092564;28;20173;-55
2024/01/27 12:35:00;;;;;;;11.43;2.80;;;8.30;99.90;;;;;;5092563;28;20168;-54
2024/01/27 12:37:26;;;;;;;12.50;2.53;;;8.30;99.90;;;;;;5092528;28;20169;-55
2024/01/27 12:39:51;;;;;;;12.43;3.10;;;8.10;99.90;;;;;;5093019;28;20168;-54
2024/01/27 12:42:17;;;;;;;11.93;3.72;;;8.20;99.90;;;;;;5092413;28;20170;-55